createdAt,value
2022-11-13T00:00:24.338Z,7.78
2022-11-13T00:03:10.632Z,9.35
2022-11-13T00:06:00.459Z,8.30
2022-11-13T00:08:46.765Z,8.27
2022-11-13T00:11:33.401Z,8.23
2022-11-13T00:14:19.687Z,8.43
2022-11-13T00:17:06.940Z,7.47
2022-11-13T00:19:53.000Z,6.82
2022-11-13T00:22:39.276Z,8.00
2022-11-13T00:25:25.291Z,9.10
2022-11-13T00:28:11.843Z,6.95
2022-11-13T00:31:00.329Z,7.35
2022-11-13T00:34:14.174Z,7.00
2022-11-13T00:36:55.357Z,7.15
2022-11-13T00:39:41.340Z,8.05
2022-11-13T00:42:27.449Z,7.32
2022-11-13T00:45:14.109Z,7.40
2022-11-13T00:48:00.183Z,8.20
2022-11-13T00:50:47.821Z,6.97
2022-11-13T00:53:34.298Z,7.32
2022-11-13T00:56:20.380Z,8.38
2022-11-13T00:59:06.609Z,7.63
2022-11-13T01:01:52.721Z,6.82
2022-11-13T01:04:38.956Z,8.02
2022-11-13T01:07:26.396Z,7.97
2022-11-13T01:10:13.303Z,6.65
2022-11-13T01:12:59.402Z,12.10
2022-11-13T01:15:46.447Z,7.18
2022-11-13T01:18:32.696Z,13.13
2022-11-13T01:21:21.099Z,8.57
2022-11-13T01:24:08.916Z,7.72
2022-11-13T01:26:55.044Z,7.95
2022-11-13T01:29:41.234Z,9.30
2022-11-13T01:32:27.330Z,7.55
2022-11-13T01:35:13.589Z,7.78
2022-11-13T01:37:59.784Z,14.77
2022-11-13T01:40:47.787Z,8.68
2022-11-13T01:43:37.173Z,12.77
2022-11-13T01:46:27.731Z,8.98
2022-11-13T01:49:25.693Z,8.63
2022-11-13T01:52:15.935Z,9.23
2022-11-13T01:55:06.025Z,8.82
2022-11-13T01:57:53.417Z,9.35
2022-11-13T02:00:39.596Z,8.25
2022-11-13T02:03:25.845Z,10.23
2022-11-13T02:06:12.062Z,7.45
2022-11-13T02:08:58.317Z,7.32
2022-11-13T02:11:45.474Z,7.85
2022-11-13T02:14:34.532Z,7.55
2022-11-13T02:17:27.424Z,8.95
2022-11-13T02:20:15.224Z,7.77
2022-11-13T02:23:12.799Z,8.75
2022-11-13T02:26:00.903Z,8.35
2022-11-13T02:28:47.021Z,6.90
2022-11-13T02:31:33.299Z,6.53
2022-11-13T02:34:19.412Z,6.55
2022-11-13T02:37:05.591Z,5.88
2022-11-13T02:39:51.780Z,6.80
2022-11-13T02:42:39.134Z,8.10
2022-11-13T02:45:25.617Z,6.20
2022-11-13T02:48:12.125Z,5.28
2022-11-13T02:50:58.294Z,6.43
2022-11-13T02:53:44.642Z,5.97
2022-11-13T02:56:30.982Z,5.68
2022-11-13T02:59:18.549Z,5.72
2022-11-13T03:02:04.634Z,7.15
2022-11-13T03:05:11.447Z,5.75
2022-11-13T03:07:56.946Z,5.53
2022-11-13T03:10:43.134Z,4.57
2022-11-13T03:13:29.315Z,6.10
2022-11-13T03:16:18.777Z,6.65
2022-11-13T03:19:05.318Z,8.30
2022-11-13T03:21:51.652Z,11.27
2022-11-13T03:24:37.874Z,8.15
2022-11-13T03:27:23.950Z,10.18
2022-11-13T03:30:11.277Z,9.05
2022-11-13T03:32:58.877Z,7.45
2022-11-13T03:35:47.132Z,7.38
2022-11-13T03:38:34.266Z,7.72
2022-11-13T03:41:20.688Z,8.10
2022-11-13T03:44:06.912Z,8.32
2022-11-13T03:46:53.128Z,7.55
2022-11-13T03:49:40.733Z,9.95
2022-11-13T03:52:26.779Z,8.38
2022-11-13T03:55:12.901Z,10.13
2022-11-13T03:57:59.656Z,6.55
2022-11-13T04:00:46.971Z,8.02
2022-11-13T04:03:33.337Z,9.27
2022-11-13T04:06:21.874Z,7.30
2022-11-13T04:09:07.908Z,7.93
2022-11-13T04:11:54.073Z,7.38
2022-11-13T04:14:40.381Z,12.07
2022-11-13T04:17:26.562Z,8.68
2022-11-13T04:20:13.351Z,8.23
2022-11-13T04:23:01.217Z,7.68
2022-11-13T04:25:49.525Z,6.53
2022-11-13T04:28:35.504Z,6.47
2022-11-13T04:31:21.696Z,9.13
2022-11-13T04:34:07.780Z,7.88
2022-11-13T04:36:53.938Z,8.55
2022-11-13T04:39:41.413Z,7.20
2022-11-13T04:42:45.411Z,6.85
2022-11-13T04:45:31.862Z,6.50
2022-11-13T04:48:18.000Z,7.57
2022-11-13T04:51:04.215Z,7.97
2022-11-13T04:53:50.292Z,10.00
2022-11-13T04:56:37.875Z,10.27
2022-11-13T04:59:24.506Z,7.53
2022-11-13T05:02:10.637Z,6.65
2022-11-13T05:05:01.806Z,7.32
2022-11-13T05:07:50.748Z,6.60
2022-11-13T05:10:36.958Z,5.88
2022-11-13T05:13:24.570Z,7.80
2022-11-13T05:16:13.559Z,8.93
2022-11-13T05:18:59.917Z,6.80
2022-11-13T05:21:46.250Z,12.60
2022-11-13T05:24:32.577Z,7.25
2022-11-13T05:27:19.046Z,8.00
2022-11-13T05:30:07.783Z,6.57
2022-11-13T05:32:54.003Z,8.70
2022-11-13T05:35:39.948Z,5.95
2022-11-13T05:38:26.097Z,5.63
2022-11-13T05:41:14.326Z,6.20
2022-11-13T05:44:00.607Z,6.18
2022-11-13T05:46:48.183Z,7.43
2022-11-13T05:49:34.224Z,7.55
2022-11-13T05:52:20.509Z,9.13
2022-11-13T05:55:07.931Z,6.53
2022-11-13T05:57:54.211Z,8.15
2022-11-13T06:00:40.180Z,12.00
2022-11-13T06:03:27.875Z,9.48
2022-11-13T06:06:16.042Z,10.57
2022-11-13T06:09:05.073Z,10.27
2022-11-13T06:11:51.305Z,6.18
2022-11-13T06:14:37.279Z,17.17
2022-11-13T06:17:23.441Z,7.10
2022-11-13T06:20:11.651Z,8.23
2022-11-13T06:22:59.012Z,6.65
2022-11-13T06:25:45.641Z,7.10
2022-11-13T06:28:31.898Z,7.80
2022-11-13T06:31:20.189Z,8.85
2022-11-13T06:34:07.147Z,7.57
2022-11-13T06:36:54.435Z,7.30
2022-11-13T06:39:40.845Z,8.45
2022-11-13T06:42:26.768Z,7.30
2022-11-13T06:45:13.013Z,8.35
2022-11-13T06:47:59.121Z,7.38
2022-11-13T06:50:48.411Z,7.13
2022-11-13T06:53:36.616Z,6.68
2022-11-13T06:56:23.193Z,12.57
2022-11-13T06:59:10.100Z,5.78
2022-11-13T07:01:56.206Z,8.23
2022-11-13T07:04:42.342Z,9.60
2022-11-13T07:07:28.471Z,6.28
2022-11-13T07:10:16.279Z,6.72
2022-11-13T07:13:02.662Z,11.80
2022-11-13T07:15:48.549Z,8.32
2022-11-13T07:18:35.265Z,6.65
2022-11-13T07:21:22.922Z,7.68
2022-11-13T07:24:14.046Z,7.20
2022-11-13T07:27:04.296Z,12.95
2022-11-13T07:29:50.152Z,7.50
2022-11-13T07:32:36.563Z,6.60
2022-11-13T07:35:22.647Z,7.03
2022-11-13T07:38:08.685Z,7.75
2022-11-13T07:40:55.106Z,6.20
2022-11-13T07:43:42.795Z,6.85
2022-11-13T07:46:28.900Z,8.48
2022-11-13T07:49:15.238Z,7.35
2022-11-13T07:52:01.348Z,5.70
2022-11-13T07:54:47.293Z,6.85
2022-11-13T07:57:33.365Z,5.93
2022-11-13T08:00:21.011Z,6.68
2022-11-13T08:03:08.728Z,5.97
2022-11-13T08:06:01.584Z,5.47
2022-11-13T08:08:49.222Z,4.60
2022-11-13T08:11:35.643Z,5.25
2022-11-13T08:14:21.644Z,5.93
2022-11-13T08:17:08.997Z,6.35
2022-11-13T08:19:55.129Z,7.78
2022-11-13T08:22:41.004Z,6.40
2022-11-13T08:25:27.520Z,6.82
2022-11-13T08:28:14.126Z,6.25
2022-11-13T08:31:00.429Z,6.60
2022-11-13T08:33:48.048Z,6.93
2022-11-13T08:36:34.132Z,5.90
2022-11-13T08:39:20.183Z,4.82
2022-11-13T08:42:06.687Z,6.18
2022-11-13T08:44:52.917Z,5.60
2022-11-13T08:47:39.243Z,7.03
2022-11-13T08:50:26.995Z,6.22
2022-11-13T08:53:13.089Z,5.05
2022-11-13T08:56:01.364Z,6.05
2022-11-13T08:58:47.802Z,12.05
2022-11-13T09:01:34.178Z,9.48
2022-11-13T09:04:20.225Z,5.65
2022-11-13T09:07:07.794Z,5.18
2022-11-13T09:09:54.173Z,5.00
2022-11-13T09:12:40.364Z,6.90
2022-11-13T09:15:26.698Z,6.50
2022-11-13T09:18:13.120Z,5.47
2022-11-13T09:21:02.611Z,5.78
2022-11-13T09:23:50.333Z,5.55
2022-11-13T09:26:36.847Z,5.78
2022-11-13T09:29:23.339Z,5.57
2022-11-13T09:32:09.726Z,5.45
2022-11-13T09:34:55.961Z,4.47
2022-11-13T09:37:41.840Z,6.35
2022-11-13T09:40:34.606Z,5.25
2022-11-13T09:43:29.687Z,5.80
2022-11-13T09:46:21.311Z,5.97
2022-11-13T09:49:15.897Z,8.15
2022-11-13T09:52:10.694Z,6.47
2022-11-13T09:54:57.129Z,5.97
2022-11-13T09:57:52.068Z,6.03
2022-11-13T10:00:38.751Z,5.70
2022-11-13T10:03:54.649Z,5.10
2022-11-13T10:06:52.680Z,6.03
2022-11-13T10:09:49.279Z,5.10
2022-11-13T10:12:36.243Z,6.35
2022-11-13T10:15:23.784Z,5.93
2022-11-13T10:18:14.940Z,4.47
2022-11-13T10:21:18.346Z,5.50
2022-11-13T10:24:14.541Z,4.50
2022-11-13T10:27:00.803Z,6.28
2022-11-13T10:29:49.159Z,5.95
2022-11-13T10:32:37.103Z,8.23
2022-11-13T10:35:45.459Z,6.28
2022-11-13T10:38:36.838Z,5.72
2022-11-13T10:41:23.282Z,5.88
2022-11-13T10:44:21.131Z,8.68
2022-11-13T10:47:15.881Z,5.13
2022-11-13T10:50:12.117Z,4.13
2022-11-13T10:52:59.821Z,4.90
2022-11-13T10:55:47.217Z,4.45
2022-11-13T10:58:33.577Z,4.05
2022-11-13T11:01:23.779Z,3.97
2022-11-13T11:04:14.801Z,3.67
2022-11-13T11:07:20.636Z,4.38
2022-11-13T11:10:22.540Z,3.15
2022-11-13T11:13:13.072Z,4.85
2022-11-13T11:16:02.670Z,4.20
2022-11-13T11:18:54.954Z,4.82
2022-11-13T11:21:43.747Z,3.38
2022-11-13T11:24:37.791Z,3.10
2022-11-13T11:27:29.360Z,2.85
2022-11-13T11:30:21.960Z,4.82
2022-11-13T11:33:14.115Z,3.30
2022-11-13T11:36:07.013Z,3.20
2022-11-13T11:39:00.271Z,4.95
2022-11-13T11:41:56.755Z,3.10
2022-11-13T11:44:55.915Z,4.47
2022-11-13T11:47:42.482Z,3.42
2022-11-13T11:50:38.786Z,3.10
2022-11-13T11:53:37.265Z,3.50
2022-11-13T11:56:32.388Z,3.05
2022-11-13T11:59:31.319Z,3.22
2022-11-13T12:02:50.356Z,5.15
2022-11-13T12:05:45.977Z,3.10
2022-11-13T12:08:38.902Z,3.80
2022-11-13T12:11:29.805Z,5.15
2022-11-13T12:14:24.059Z,3.47
2022-11-13T12:17:28.790Z,4.00
2022-11-13T12:20:25.590Z,3.72
2022-11-13T12:23:38.262Z,3.53
2022-11-13T12:26:28.752Z,3.92
2022-11-13T12:29:26.029Z,3.40
2022-11-13T12:32:29.301Z,3.85
2022-11-13T12:35:19.739Z,3.30
2022-11-13T12:38:18.534Z,3.90
2022-11-13T12:41:21.349Z,2.63
2022-11-13T12:44:34.260Z,5.07
2022-11-13T12:47:21.257Z,3.65
2022-11-13T12:50:30.319Z,4.53
2022-11-13T12:53:27.892Z,4.30
2022-11-13T12:56:17.624Z,26.83
2022-11-13T12:59:29.868Z,17.25
2022-11-13T13:02:31.022Z,7.13
2022-11-13T13:05:26.522Z,15.10
2022-11-13T13:08:45.436Z,12.70
2022-11-13T13:11:40.326Z,7.10
2022-11-13T13:14:38.685Z,5.55
2022-11-13T13:17:25.587Z,7.40
2022-11-13T13:20:31.789Z,4.07
2022-11-13T13:23:28.214Z,4.35
2022-11-13T13:26:18.356Z,3.72
2022-11-13T13:29:17.835Z,5.43
2022-11-13T13:32:20.778Z,3.58
2022-11-13T13:35:14.660Z,4.00
2022-11-13T13:38:13.127Z,4.38
2022-11-13T13:41:18.056Z,3.28
2022-11-13T13:44:31.097Z,4.38
2022-11-13T13:47:25.400Z,5.93
2022-11-13T13:50:16.784Z,5.45
2022-11-13T13:53:04.549Z,3.10
2022-11-13T13:55:55.319Z,3.80
2022-11-13T13:58:42.286Z,3.17
2022-11-13T14:01:30.681Z,2.63
2022-11-13T14:04:20.549Z,2.88
2022-11-13T14:07:19.733Z,2.65
2022-11-13T14:10:17.511Z,2.72
2022-11-13T14:13:04.583Z,2.53
2022-11-13T14:16:00.550Z,2.67
2022-11-13T14:18:47.070Z,2.85
2022-11-13T14:21:33.547Z,3.53
2022-11-13T14:24:23.488Z,2.92
2022-11-13T14:27:24.183Z,4.32
2022-11-13T14:30:23.782Z,2.90
2022-11-13T14:33:11.943Z,3.42
2022-11-13T14:35:59.295Z,4.38
2022-11-13T14:38:52.140Z,8.32
2022-11-13T14:41:42.487Z,5.88
2022-11-13T14:44:32.779Z,4.10
2022-11-13T14:47:25.035Z,4.32
2022-11-13T14:50:23.759Z,3.15
2022-11-13T14:53:11.741Z,4.53
2022-11-13T14:55:59.663Z,4.78
2022-11-13T14:58:47.768Z,3.08
2022-11-13T15:01:35.372Z,4.75
2022-11-13T15:04:22.155Z,3.47
2022-11-13T15:07:21.964Z,4.32
2022-11-13T15:10:13.758Z,4.25
2022-11-13T15:13:00.154Z,3.97
2022-11-13T15:15:46.572Z,3.78
2022-11-13T15:18:35.403Z,6.20
2022-11-13T15:21:21.497Z,6.25
2022-11-13T15:24:08.163Z,16.48
2022-11-13T15:26:54.610Z,9.50
2022-11-13T15:29:41.200Z,5.85
2022-11-13T15:32:28.913Z,7.57
2022-11-13T15:35:19.907Z,5.88
2022-11-13T15:38:06.489Z,6.63
2022-11-13T15:40:52.661Z,6.15
2022-11-13T15:43:39.240Z,4.05
2022-11-13T15:46:26.430Z,7.35
2022-11-13T15:49:12.650Z,4.53
2022-11-13T15:52:00.025Z,3.83
2022-11-13T15:54:46.614Z,6.50
2022-11-13T15:57:32.714Z,5.68
2022-11-13T16:00:24.757Z,5.07
2022-11-13T16:03:12.345Z,5.93
2022-11-13T16:05:59.062Z,6.95
2022-11-13T16:08:47.529Z,10.13
2022-11-13T16:11:35.104Z,21.17
2022-11-13T16:14:24.748Z,11.07
2022-11-13T16:17:14.051Z,9.57
2022-11-13T16:20:00.506Z,9.35
2022-11-13T16:22:46.920Z,21.25
2022-11-13T16:25:34.813Z,10.43
2022-11-13T16:28:20.892Z,9.95
2022-11-13T16:31:07.161Z,6.55
2022-11-13T16:33:53.325Z,11.25
2022-11-13T16:36:39.704Z,16.73
2022-11-13T16:39:25.858Z,13.05
2022-11-13T16:42:14.381Z,7.35
2022-11-13T16:45:00.636Z,44.30
2022-11-13T16:47:47.748Z,22.90
2022-11-13T16:50:36.806Z,9.00
2022-11-13T16:53:23.023Z,7.50
2022-11-13T16:56:14.781Z,5.43
2022-11-13T16:59:02.573Z,9.93
2022-11-13T17:01:48.895Z,7.13
2022-11-13T17:04:35.001Z,11.95
2022-11-13T17:07:21.368Z,10.88
2022-11-13T17:10:30.224Z,10.30
2022-11-13T17:13:14.707Z,8.80
2022-11-13T17:16:02.739Z,9.18
2022-11-13T17:18:50.762Z,6.13
2022-11-13T17:21:41.313Z,5.45
2022-11-13T17:24:30.317Z,6.10
2022-11-13T17:27:16.669Z,5.05
2022-11-13T17:30:03.596Z,19.25
2022-11-13T17:32:51.394Z,31.92
2022-11-13T17:35:37.609Z,10.50
2022-11-13T17:38:24.003Z,12.18
2022-11-13T17:41:12.136Z,11.50
2022-11-13T17:44:01.468Z,13.68
2022-11-13T17:46:48.370Z,12.68
2022-11-13T17:49:35.842Z,18.25
2022-11-13T17:52:21.953Z,9.63
2022-11-13T17:55:11.762Z,15.93
2022-11-13T17:58:00.458Z,17.70
2022-11-13T18:00:46.543Z,21.00
2022-11-13T18:03:32.780Z,20.52
2022-11-13T18:06:21.179Z,19.50
2022-11-13T18:09:07.693Z,14.02
2022-11-13T18:11:54.127Z,12.15
2022-11-13T18:14:40.764Z,8.35
2022-11-13T18:17:27.300Z,8.38
2022-11-13T18:20:14.075Z,8.25
2022-11-13T18:23:01.764Z,10.27
2022-11-13T18:25:48.189Z,14.02
2022-11-13T18:28:34.368Z,12.18
2022-11-13T18:31:21.483Z,15.40
2022-11-13T18:34:09.897Z,16.98
2022-11-13T18:36:56.130Z,12.30
2022-11-13T18:39:43.722Z,16.00
2022-11-13T18:42:30.165Z,13.30
2022-11-13T18:45:16.661Z,11.32
2022-11-13T18:48:03.296Z,11.30
2022-11-13T18:50:56.646Z,16.45
2022-11-13T18:53:45.466Z,17.42
2022-11-13T18:56:33.827Z,19.10
2022-11-13T18:59:20.053Z,25.73
2022-11-13T19:02:06.687Z,35.72
2022-11-13T19:04:53.221Z,30.00
2022-11-13T19:07:39.230Z,19.05
2022-11-13T19:10:25.454Z,14.65
2022-11-13T19:13:13.004Z,16.38
2022-11-13T19:16:04.830Z,15.57
2022-11-13T19:18:52.989Z,12.10
2022-11-13T19:21:39.127Z,15.95
2022-11-13T19:24:25.418Z,16.17
2022-11-13T19:27:11.828Z,16.20
2022-11-13T19:29:59.655Z,17.48
2022-11-13T19:32:45.981Z,21.05
2022-11-13T19:35:33.458Z,17.95
2022-11-13T19:38:20.350Z,22.45
2022-11-13T19:41:08.669Z,24.80
2022-11-13T19:43:54.960Z,23.10
2022-11-13T19:46:44.885Z,19.80
2022-11-13T19:49:31.192Z,21.35
2022-11-13T19:52:17.475Z,19.50
2022-11-13T19:55:03.826Z,18.20
2022-11-13T19:57:50.602Z,18.15
2022-11-13T20:00:37.151Z,17.33
2022-11-13T20:03:26.079Z,18.30
2022-11-13T20:06:14.635Z,16.70
2022-11-13T20:09:02.788Z,18.55
2022-11-13T20:11:48.919Z,18.90
2022-11-13T20:14:38.409Z,15.73
2022-11-13T20:17:24.987Z,17.00
2022-11-13T20:20:12.952Z,14.60
2022-11-13T20:22:59.451Z,14.75
2022-11-13T20:25:52.642Z,13.27
2022-11-13T20:28:38.885Z,13.45
2022-11-13T20:31:27.579Z,28.85
2022-11-13T20:34:14.556Z,32.47
2022-11-13T20:37:02.531Z,18.70
2022-11-13T20:39:48.823Z,18.80
2022-11-13T20:42:35.173Z,16.00
2022-11-13T20:45:21.395Z,24.48
2022-11-13T20:48:07.642Z,53.10
2022-11-13T20:50:54.142Z,27.27
2022-11-13T20:53:43.927Z,25.10
2022-11-13T20:56:30.090Z,22.20
2022-11-13T20:59:16.435Z,18.08
2022-11-13T21:02:02.698Z,22.00
2022-11-13T21:04:49.221Z,21.98
2022-11-13T21:07:35.452Z,19.92
2022-11-13T21:10:23.054Z,21.60
2022-11-13T21:13:09.566Z,16.77
2022-11-13T21:15:56.040Z,17.65
2022-11-13T21:18:42.518Z,17.48
2022-11-13T21:21:29.070Z,15.80
2022-11-13T21:24:15.354Z,16.85
2022-11-13T21:27:03.064Z,18.33
2022-11-13T21:29:49.295Z,16.95
2022-11-13T21:32:35.408Z,21.50
2022-11-13T21:35:22.917Z,16.30
2022-11-13T21:38:09.486Z,21.13
2022-11-13T21:41:13.770Z,26.10
2022-11-13T21:44:03.227Z,30.98
2022-11-13T21:46:49.385Z,19.17
2022-11-13T21:49:35.444Z,16.02
2022-11-13T21:52:21.784Z,22.25
2022-11-13T21:55:09.752Z,18.33
2022-11-13T21:57:56.023Z,17.95
2022-11-13T22:00:44.746Z,17.80
2022-11-13T22:03:31.058Z,21.55
2022-11-13T22:06:20.327Z,23.73
2022-11-13T22:09:08.907Z,17.60
2022-11-13T22:11:55.286Z,21.80
2022-11-13T22:14:41.406Z,23.73
2022-11-13T22:17:28.901Z,18.35
2022-11-13T22:20:15.845Z,23.40
2022-11-13T22:23:02.313Z,26.15
2022-11-13T22:25:48.405Z,23.85
2022-11-13T22:28:36.242Z,20.45
2022-11-13T22:31:25.398Z,29.10
2022-11-13T22:34:13.060Z,20.10
2022-11-13T22:36:59.742Z,27.75
2022-11-13T22:39:46.040Z,26.80
2022-11-13T22:42:32.206Z,25.23
2022-11-13T22:45:23.848Z,19.40
2022-11-13T22:48:11.479Z,16.50
2022-11-13T22:51:03.584Z,19.80
2022-11-13T22:53:52.889Z,16.45
2022-11-13T22:56:40.756Z,19.80
2022-11-13T22:59:27.038Z,18.35
2022-11-13T23:02:13.003Z,16.45
2022-11-13T23:04:59.293Z,17.75
2022-11-13T23:07:46.618Z,33.50
2022-11-13T23:10:32.820Z,26.25
2022-11-13T23:13:19.162Z,36.25
2022-11-13T23:16:05.401Z,30.00
2022-11-13T23:18:52.207Z,25.15
2022-11-13T23:21:38.668Z,17.63
2022-11-13T23:24:26.024Z,17.65
2022-11-13T23:27:12.968Z,17.00
2022-11-13T23:29:59.352Z,15.15
2022-11-13T23:32:45.686Z,13.73
2022-11-13T23:35:32.030Z,17.75
2022-11-13T23:38:18.517Z,16.35
2022-11-13T23:41:06.904Z,16.23
2022-11-13T23:44:08.298Z,14.65
2022-11-13T23:46:55.738Z,13.45
2022-11-13T23:49:41.727Z,15.27
2022-11-13T23:52:27.838Z,16.23
2022-11-13T23:55:13.985Z,13.85
2022-11-13T23:58:02.961Z,14.10
